Time;durP1;ratioP1;P1;durP2;ratioP2;P2;SDS_P1;SDS_P2;PMS_P1;PMS_P2;Temp;Humidity;BMP_temperature;BMP_pressure;BME280_temperature;BME280_humidity;BME280_pressure;Samples;Min_cycle;Max_cycle;Signal;HPM_P1;HPM_P2
2023/03/23 00:02:11;;;;;;;1.57;1.07;;;14.10;99.90;;;;;;4992419;28;20806;-76
2023/03/23 00:04:36;;;;;;;1.00;0.90;;;14.10;99.90;;;;;;4991980;28;20525;-76
2023/03/23 00:07:02;;;;;;;0.83;0.83;;;14.10;99.90;;;;;;4992586;28;20187;-76
2023/03/23 00:09:29;;;;;;;0.93;0.93;;;14.10;99.90;;;;;;4992083;28;20190;-76
2023/03/23 00:11:56;;;;;;;1.00;0.90;;;14.10;99.90;;;;;;4990702;28;20458;-76
2023/03/23 00:14:23;;;;;;;1.70;1.43;;;14.20;99.90;;;;;;4991742;28;20427;-76
2023/03/23 00:16:50;;;;;;;1.90;1.17;;;14.20;99.90;;;;;;4991312;28;20469;-76
2023/03/23 00:19:19;;;;;;;3.20;1.10;;;14.20;99.90;;;;;;4992133;28;20422;-76
2023/03/23 00:21:45;;;;;;;1.03;1.03;;;14.20;99.90;;;;;;4991527;28;20979;-76
2023/03/23 00:24:15;;;;;;;1.33;1.23;;;14.10;99.90;;;;;;4991585;28;20415;-76
2023/03/23 00:26:43;;;;;;;0.93;0.90;;;14.20;99.90;;;;;;4991181;28;20434;-76
2023/03/23 00:29:14;;;;;;;2.00;1.00;;;14.20;99.90;;;;;;4992088;28;20418;-76
2023/03/23 00:31:46;;;;;;;1.87;1.03;;;14.20;99.90;;;;;;4991431;28;20874;-76
2023/03/23 00:34:18;;;;;;;1.43;1.07;;;14.10;99.90;;;;;;4992239;28;20458;-79
2023/03/23 00:36:44;;;;;;;1.30;1.20;;;14.10;99.90;;;;;;4991895;28;20777;-79
2023/03/23 00:39:10;;;;;;;1.13;1.03;;;14.10;99.90;;;;;;5007310;28;20945;-79
2023/03/23 00:41:36;;;;;;;1.47;1.37;;;14.10;99.90;;;;;;4991150;28;20450;-79
2023/03/23 00:44:02;;;;;;;3.77;1.00;;;14.10;99.90;;;;;;4992243;28;20183;-76
2023/03/23 00:46:28;;;;;;;2.33;1.20;;;14.20;99.90;;;;;;4993900;28;20792;-78
2023/03/23 00:48:56;;;;;;;0.90;0.90;;;14.20;99.90;;;;;;4993684;28;20850;-78
2023/03/23 00:51:23;;;;;;;1.13;1.00;;;14.20;99.90;;;;;;4993374;28;20458;-78
2023/03/23 00:53:48;;;;;;;1.10;1.10;;;14.20;99.90;;;;;;4992613;28;20942;-78
2023/03/23 00:56:14;;;;;;;1.50;1.40;;;14.20;99.90;;;;;;4993298;28;20462;-79
2023/03/23 00:58:41;;;;;;;1.60;1.00;;;14.20;99.90;;;;;;4993143;28;20201;-79
2023/03/23 01:01:07;;;;;;;3.20;1.43;;;14.20;99.90;;;;;;4992294;28;20499;-78
2023/03/23 01:03:33;;;;;;;1.83;1.10;;;14.20;99.90;;;;;;4992588;28;20426;-78
2023/03/23 01:06:08;;;;;;;2.30;1.20;;;14.20;99.90;;;;;;4991972;28;20876;-78
2023/03/23 01:08:36;;;;;;;1.77;1.17;;;14.10;99.90;;;;;;4992361;28;20433;-78
2023/03/23 01:11:04;;;;;;;1.20;1.10;;;14.20;99.90;;;;;;5007522;28;20481;-78
2023/03/23 01:13:29;;;;;;;1.60;1.20;;;14.20;99.90;;;;;;4992543;28;20464;-78
2023/03/23 01:15:55;;;;;;;1.43;1.33;;;14.30;99.90;;;;;;4991622;28;20573;-78
2023/03/23 01:18:21;;;;;;;1.80;1.00;;;14.20;99.90;;;;;;4993234;28;20184;-78
2023/03/23 01:20:46;;;;;;;1.37;0.97;;;14.20;99.90;;;;;;4992650;28;20211;-78
2023/03/23 01:23:12;;;;;;;2.17;0.80;;;14.20;99.90;;;;;;4992779;28;20179;-78
2023/03/23 01:25:37;;;;;;;2.40;1.00;;;14.20;99.90;;;;;;4992260;28;20195;-78
2023/03/23 01:28:03;;;;;;;2.50;0.90;;;14.20;99.90;;;;;;5007391;28;20194;-78
2023/03/23 01:30:29;;;;;;;0.87;0.80;;;14.20;99.90;;;;;;5007164;28;20180;-78
2023/03/23 01:32:55;;;;;;;1.10;1.00;;;14.20;99.90;;;;;;4992086;28;20246;-78
2023/03/23 01:35:21;;;;;;;3.37;1.20;;;14.20;99.90;;;;;;4992266;28;20176;-78
2023/03/23 01:37:47;;;;;;;1.00;1.00;;;14.20;99.90;;;;;;4992219;28;20433;-78
2023/03/23 01:40:14;;;;;;;1.20;1.10;;;14.20;99.90;;;;;;4992453;28;20451;-78
2023/03/23 01:42:40;;;;;;;1.90;1.13;;;14.20;99.90;;;;;;4990821;28;20442;-78
2023/03/23 01:45:26;;;;;;;1.13;1.13;;;14.10;99.90;;;;;;4992343;28;20457;-78
2023/03/23 01:47:57;;;;;;;1.53;1.20;;;14.10;99.90;;;;;;4987736;28;20168;-78
2023/03/23 01:50:27;;;;;;;1.37;1.27;;;14.20;99.90;;;;;;4995549;28;20410;-78
2023/03/23 01:52:55;;;;;;;2.30;1.00;;;14.20;99.90;;;;;;4988210;28;20410;-78
2023/03/23 01:55:22;;;;;;;1.40;1.30;;;14.10;99.90;;;;;;4995832;28;20420;-78
2023/03/23 01:57:49;;;;;;;2.83;1.50;;;14.10;99.90;;;;;;4996238;28;20494;-78
2023/03/23 03:32:30;;;;;;;2.33;1.90;;;13.70;99.90;;;;;;5058099;23;20522;-72
2023/03/23 03:34:58;;;;;;;1.80;1.00;;;13.70;99.90;;;;;;4895678;29;20433;-75
2023/03/23 03:37:24;;;;;;;2.87;1.17;;;13.70;99.90;;;;;;4896810;29;20492;-75
2023/03/23 03:39:50;;;;;;;1.17;1.07;;;13.80;99.90;;;;;;4896782;29;20431;-74
2023/03/23 03:42:16;;;;;;;2.63;1.20;;;13.80;99.90;;;;;;4896955;29;20743;-75
2023/03/23 03:44:41;;;;;;;1.97;1.40;;;13.80;99.90;;;;;;4896486;29;20435;-74
2023/03/23 03:47:07;;;;;;;1.30;1.20;;;13.80;99.90;;;;;;4899370;29;20202;-74
2023/03/23 03:49:32;;;;;;;1.60;1.30;;;13.90;99.90;;;;;;4899485;29;20208;-74
2023/03/23 03:51:58;;;;;;;1.60;1.17;;;13.90;99.90;;;;;;4898757;29;20214;-75
2023/03/23 03:54:23;;;;;;;2.77;1.07;;;13.90;99.90;;;;;;4897574;29;20202;-74
2023/03/23 03:56:51;;;;;;;1.30;1.30;;;13.90;99.90;;;;;;4896552;29;20211;-75
2023/03/23 03:59:17;;;;;;;1.17;0.97;;;14.00;99.90;;;;;;4896735;29;20664;-75
2023/03/23 04:01:42;;;;;;;1.57;1.07;;;14.00;99.90;;;;;;4898742;29;20451;-76
2023/03/23 04:04:08;;;;;;;1.93;1.40;;;14.00;99.90;;;;;;4896715;29;20744;-75
2023/03/23 04:06:35;;;;;;;2.00;1.70;;;14.00;99.90;;;;;;4896482;29;20187;-75
2023/03/23 04:09:05;;;;;;;1.53;1.17;;;14.00;99.90;;;;;;4895890;29;20186;-75
2023/03/23 04:11:31;;;;;;;3.30;1.83;;;14.00;99.90;;;;;;4895119;29;20459;-75
2023/03/23 04:13:56;;;;;;;4.10;1.23;;;14.00;99.90;;;;;;4896460;29;20437;-75
2023/03/23 04:16:22;;;;;;;1.20;1.10;;;14.00;99.90;;;;;;4896513;29;20210;-75
2023/03/23 04:18:47;;;;;;;2.03;1.60;;;14.00;99.90;;;;;;4896288;29;20218;-76
2023/03/23 04:21:14;;;;;;;4.00;1.50;;;14.00;99.90;;;;;;4896322;29;20703;-74
2023/03/23 04:23:40;;;;;;;1.77;1.13;;;14.00;99.90;;;;;;4895040;29;20194;-75
2023/03/23 04:26:06;;;;;;;1.23;1.10;;;14.10;99.90;;;;;;4896403;29;20522;-75
2023/03/23 04:28:33;;;;;;;1.50;1.40;;;14.10;99.90;;;;;;4896687;29;20995;-75
2023/03/23 04:31:00;;;;;;;1.00;1.00;;;14.10;99.90;;;;;;4896103;29;20217;-74
2023/03/23 04:33:27;;;;;;;1.90;1.50;;;14.10;99.90;;;;;;4896856;29;20461;-74
2023/03/23 04:35:56;;;;;;;1.23;1.13;;;14.10;99.90;;;;;;4899169;29;20917;-76
2023/03/23 04:38:24;;;;;;;1.20;1.10;;;14.10;99.90;;;;;;4896494;29;20435;-76
2023/03/23 04:40:51;;;;;;;0.97;0.97;;;14.20;99.90;;;;;;4896318;29;20491;-76
2023/03/23 04:43:22;;;;;;;2.10;0.93;;;14.10;99.90;;;;;;4897394;29;20431;-76
2023/03/23 04:45:57;;;;;;;1.57;1.00;;;14.20;99.90;;;;;;4897765;29;20485;-75
2023/03/23 04:48:27;;;;;;;1.77;1.10;;;14.20;99.90;;;;;;4896076;29;20443;-75
2023/03/23 04:50:54;;;;;;;1.33;1.23;;;14.20;99.90;;;;;;4888199;29;20832;-75
2023/03/23 04:53:20;;;;;;;1.63;1.30;;;14.20;99.90;;;;;;4895916;29;20871;-75
2023/03/23 04:55:47;;;;;;;1.10;1.10;;;14.20;99.90;;;;;;4895645;29;20477;-75
2023/03/23 04:58:14;;;;;;;3.00;1.20;;;14.10;99.90;;;;;;4894858;29;20446;-76
2023/03/23 05:00:40;;;;;;;2.10;1.10;;;14.20;99.90;;;;;;4895677;29;20458;-74
2023/03/23 05:03:07;;;;;;;1.57;1.47;;;14.10;99.90;;;;;;4894939;29;20423;-73
2023/03/23 05:05:34;;;;;;;1.60;1.50;;;14.10;99.90;;;;;;4894179;29;20445;-73
2023/03/23 05:08:00;;;;;;;1.10;1.00;;;14.20;99.90;;;;;;4895743;29;20431;-74
2023/03/23 05:10:25;;;;;;;2.13;1.23;;;14.20;99.90;;;;;;4895361;29;20520;-74
2023/03/23 05:12:53;;;;;;;2.33;1.23;;;14.30;99.90;;;;;;4895558;29;20565;-74
2023/03/23 05:15:18;;;;;;;1.63;1.53;;;14.30;99.90;;;;;;4896396;29;20197;-73
2023/03/23 05:17:44;;;;;;;1.13;1.03;;;14.40;99.90;;;;;;4894277;29;20482;-73
2023/03/23 05:20:11;;;;;;;1.90;1.50;;;14.40;99.90;;;;;;4895398;29;20215;-73
2023/03/23 05:22:38;;;;;;;1.03;0.90;;;14.50;99.90;;;;;;4899170;29;20206;-73
2023/03/23 05:25:05;;;;;;;1.70;1.53;;;14.50;99.90;;;;;;4899132;29;20427;-73
2023/03/23 05:27:32;;;;;;;1.10;1.10;;;14.50;99.90;;;;;;4899098;29;20495;-73
2023/03/23 05:29:58;;;;;;;1.37;1.03;;;14.50;99.90;;;;;;4898076;29;20438;-74
2023/03/23 05:32:29;;;;;;;1.00;0.87;;;14.50;99.90;;;;;;4898311;29;20458;-73
2023/03/23 05:35:01;;;;;;;1.73;1.57;;;14.50;99.90;;;;;;4890183;29;20194;-73
2023/03/23 05:37:32;;;;;;;1.03;1.03;;;14.50;99.90;;;;;;4898657;29;20481;-73
2023/03/23 05:40:04;;;;;;;6.40;1.40;;;14.50;99.90;;;;;;4890636;29;20439;-73
2023/03/23 05:42:32;;;;;;;1.83;1.67;;;14.50;99.90;;;;;;4898682;29;20447;-73
2023/03/23 05:44:58;;;;;;;1.20;1.10;;;14.50;99.90;;;;;;4898936;29;20538;-73
2023/03/23 05:47:25;;;;;;;4.00;1.37;;;14.50;99.90;;;;;;4898635;29;20593;-74
2023/03/23 05:49:51;;;;;;;1.20;1.10;;;14.60;99.90;;;;;;4897285;29;20948;-73
2023/03/23 05:52:17;;;;;;;1.20;1.20;;;14.60;99.90;;;;;;4898596;29;20547;-74
2023/03/23 05:54:43;;;;;;;2.43;1.10;;;14.50;99.90;;;;;;4898529;29;20502;-74
2023/03/23 05:57:08;;;;;;;1.10;1.00;;;14.50;99.90;;;;;;4898590;29;20331;-73
2023/03/23 05:59:35;;;;;;;1.33;1.23;;;14.50;99.90;;;;;;4898360;29;20194;-73
2023/03/23 06:02:00;;;;;;;3.07;1.10;;;14.60;99.90;;;;;;4897634;29;20210;-74
2023/03/23 06:04:27;;;;;;;1.90;1.20;;;14.60;99.90;;;;;;4899656;29;20439;-73
2023/03/23 06:06:52;;;;;;;1.97;1.40;;;14.60;99.90;;;;;;4899300;29;20190;-74
2023/03/23 06:09:18;;;;;;;1.70;1.10;;;14.60;99.90;;;;;;4899812;29;21126;-74
2023/03/23 06:11:44;;;;;;;2.23;1.50;;;14.60;99.90;;;;;;4897725;29;20282;-74
2023/03/23 06:14:10;;;;;;;3.23;1.23;;;14.60;99.90;;;;;;4898110;29;20443;-74
2023/03/23 06:16:36;;;;;;;3.80;1.37;;;14.60;99.90;;;;;;4898114;29;20479;-73
2023/03/23 06:19:03;;;;;;;1.17;1.07;;;14.60;99.90;;;;;;4898300;29;20583;-73
2023/03/23 06:21:32;;;;;;;2.80;1.00;;;14.60;99.90;;;;;;4897883;29;20241;-73
2023/03/23 06:23:59;;;;;;;2.60;1.40;;;14.60;99.90;;;;;;4895343;29;20435;-73
2023/03/23 06:26:31;;;;;;;1.20;1.10;;;14.60;99.90;;;;;;4892224;29;20443;-75
2023/03/23 06:28:57;;;;;;;3.67;1.77;;;14.60;99.90;;;;;;4894802;29;20450;-75
2023/03/23 06:31:24;;;;;;;2.30;1.17;;;14.50;99.90;;;;;;4896838;29;20859;-73
2023/03/23 06:33:50;;;;;;;2.20;1.23;;;14.50;99.90;;;;;;4896580;29;20962;-74
2023/03/23 06:36:16;;;;;;;2.30;1.03;;;14.50;99.90;;;;;;4897414;29;20474;-73
2023/03/23 06:38:42;;;;;;;2.83;1.10;;;14.50;99.90;;;;;;4897922;29;20702;-73
2023/03/23 06:41:08;;;;;;;2.80;1.30;;;14.50;99.90;;;;;;4896632;29;20455;-74
2023/03/23 06:43:35;;;;;;;2.97;1.87;;;14.50;99.90;;;;;;4896323;29;20571;-75
2023/03/23 06:46:01;;;;;;;2.97;1.77;;;14.50;99.90;;;;;;4897951;29;20679;-74
2023/03/23 06:48:27;;;;;;;2.20;1.27;;;14.50;99.90;;;;;;4897617;29;20438;-73
2023/03/23 06:50:53;;;;;;;1.33;1.23;;;14.50;99.90;;;;;;4897567;29;20505;-74
2023/03/23 06:53:20;;;;;;;1.20;1.10;;;14.60;99.90;;;;;;4897541;29;20475;-75
2023/03/23 06:55:46;;;;;;;5.53;1.43;;;14.70;99.90;;;;;;4897441;29;20190;-75
2023/03/23 06:58:12;;;;;;;1.33;1.23;;;14.80;99.90;;;;;;4897582;29;20533;-75
2023/03/23 07:00:38;;;;;;;2.13;1.07;;;15.00;99.90;;;;;;4897175;29;20601;-74
2023/03/23 07:03:04;;;;;;;1.00;1.00;;;15.00;99.90;;;;;;4895720;29;20286;-74
2023/03/23 07:05:30;;;;;;;4.20;1.77;;;15.10;99.90;;;;;;4897225;29;20518;-75
2023/03/23 07:07:55;;;;;;;3.13;1.53;;;15.10;99.90;;;;;;4897345;29;20668;-73
2023/03/23 07:10:21;;;;;;;2.90;1.97;;;15.20;99.90;;;;;;4897123;29;20679;-73
2023/03/23 07:12:46;;;;;;;1.80;1.37;;;15.10;99.90;;;;;;4896913;29;20198;-71
2023/03/23 07:15:12;;;;;;;2.33;1.50;;;15.10;99.90;;;;;;4897141;29;20191;-73
2023/03/23 07:17:39;;;;;;;2.40;2.20;;;15.10;99.90;;;;;;4896432;29;20218;-73
2023/03/23 07:20:05;;;;;;;2.00;1.90;;;15.10;99.90;;;;;;4897168;29;20793;-74
2023/03/23 07:22:31;;;;;;;1.43;1.33;;;15.10;99.90;;;;;;4895396;29;20463;-73
2023/03/23 07:24:56;;;;;;;1.37;1.27;;;15.10;99.90;;;;;;4897251;29;20514;-74
2023/03/23 07:27:22;;;;;;;1.80;1.70;;;15.10;99.90;;;;;;4896790;29;20297;-74
2023/03/23 07:29:48;;;;;;;3.20;2.57;;;15.00;99.90;;;;;;4896526;29;20206;-74
2023/03/23 07:32:13;;;;;;;1.80;1.30;;;15.00;99.90;;;;;;4896396;29;20286;-75
2023/03/23 07:34:39;;;;;;;1.50;1.23;;;15.00;99.90;;;;;;4897396;29;20206;-74
2023/03/23 07:37:05;;;;;;;2.33;1.63;;;15.00;99.90;;;;;;4897079;29;20691;-74
2023/03/23 07:39:31;;;;;;;2.73;1.60;;;15.00;99.90;;;;;;4896294;29;20229;-73
2023/03/23 07:41:57;;;;;;;1.77;1.67;;;15.00;99.90;;;;;;4896574;29;20214;-74
2023/03/23 07:44:23;;;;;;;3.70;1.37;;;15.10;99.90;;;;;;4896217;29;20789;-74
2023/03/23 07:46:48;;;;;;;3.10;1.43;;;15.10;99.90;;;;;;4896439;29;20286;-75
2023/03/23 07:49:14;;;;;;;1.70;1.60;;;15.20;99.90;;;;;;4896717;29;20901;-74
2023/03/23 07:51:40;;;;;;;2.13;1.33;;;15.20;99.90;;;;;;4896248;29;20651;-74
2023/03/23 07:54:10;;;;;;;4.50;1.30;;;15.40;99.90;;;;;;4896535;29;20489;-75
2023/03/23 07:56:39;;;;;;;1.73;1.40;;;15.70;99.90;;;;;;4896304;29;20211;-74
2023/03/23 07:59:05;;;;;;;2.57;1.30;;;15.90;99.90;;;;;;4896551;29;20439;-74
2023/03/23 08:01:31;;;;;;;1.40;1.30;;;16.10;99.90;;;;;;4894937;29;20462;-74
2023/03/23 08:03:57;;;;;;;3.70;1.70;;;16.20;99.90;;;;;;4896175;29;20470;-74
2023/03/23 08:06:24;;;;;;;7.20;1.90;;;16.20;99.90;;;;;;4895906;29;20439;-75
2023/03/23 08:08:50;;;;;;;2.50;1.37;;;16.20;99.90;;;;;;4896019;29;20205;-75
2023/03/23 08:11:16;;;;;;;1.87;1.67;;;16.20;99.90;;;;;;4895989;29;20852;-75
2023/03/23 08:13:42;;;;;;;1.87;1.60;;;16.20;99.90;;;;;;4895703;29;20477;-74
2023/03/23 08:16:09;;;;;;;1.60;1.50;;;16.10;99.90;;;;;;4896134;29;20951;-74
2023/03/23 08:18:35;;;;;;;1.40;1.30;;;16.10;99.90;;;;;;4895696;29;20203;-73
2023/03/23 08:21:01;;;;;;;3.67;1.80;;;16.20;99.90;;;;;;4895714;29;20684;-74
2023/03/23 08:23:27;;;;;;;2.50;1.53;;;16.10;99.90;;;;;;4895563;29;20462;-74
2023/03/23 08:25:53;;;;;;;1.70;1.60;;;16.10;99.90;;;;;;4894687;29;20435;-74
2023/03/23 08:28:19;;;;;;;2.17;1.67;;;16.20;99.90;;;;;;4896877;29;20566;-74
2023/03/23 08:30:44;;;;;;;2.83;1.60;;;16.30;99.90;;;;;;4896380;29;20477;-74
2023/03/23 08:33:10;;;;;;;2.13;1.63;;;16.20;99.90;;;;;;4896439;29;20423;-74
2023/03/23 08:35:36;;;;;;;1.90;1.70;;;16.20;99.90;;;;;;4896390;29;20668;-74
2023/03/23 08:38:03;;;;;;;4.20;1.60;;;16.30;99.90;;;;;;4896973;29;20610;-75
2023/03/23 08:40:28;;;;;;;2.03;1.83;;;16.30;99.90;;;;;;4896192;29;20466;-75
2023/03/23 08:42:55;;;;;;;1.77;1.67;;;16.40;99.90;;;;;;4895689;29;20462;-74
2023/03/23 08:45:23;;;;;;;8.53;4.67;;;16.40;99.90;;;;;;4895933;29;20550;-75
2023/03/23 08:47:51;;;;;;;2.93;2.30;;;16.40;99.90;;;;;;4895456;29;20956;-73
2023/03/23 08:50:23;;;;;;;2.70;1.80;;;16.30;99.90;;;;;;4895828;29;20948;-75
2023/03/23 08:52:49;;;;;;;1.90;1.70;;;16.20;99.90;;;;;;4895680;29;20928;-73
2023/03/23 08:55:17;;;;;;;2.60;1.20;;;16.10;99.90;;;;;;4896023;29;20778;-75
2023/03/23 08:57:43;;;;;;;1.70;1.60;;;16.00;99.90;;;;;;4899238;29;20475;-74
2023/03/23 09:00:17;;;;;;;2.30;1.27;;;15.80;99.90;;;;;;4899578;29;20431;-73
2023/03/23 09:02:45;;;;;;;2.20;1.30;;;15.70;99.90;;;;;;4899473;29;20465;-74
2023/03/23 09:05:11;;;;;;;1.73;1.63;;;15.70;99.90;;;;;;4899797;29;20433;-75
2023/03/23 09:07:38;;;;;;;1.43;1.13;;;15.70;99.90;;;;;;4899440;29;20467;-74
2023/03/23 09:10:05;;;;;;;1.57;1.47;;;15.70;99.90;;;;;;4899941;29;20435;-75
2023/03/23 09:12:30;;;;;;;5.00;1.43;;;15.70;99.90;;;;;;4899335;29;20455;-74
2023/03/23 09:14:56;;;;;;;2.40;1.57;;;15.70;99.90;;;;;;4899465;29;20621;-74
2023/03/23 09:17:22;;;;;;;3.40;1.13;;;15.80;99.90;;;;;;4899282;29;20203;-74
2023/03/23 09:19:48;;;;;;;4.70;1.80;;;15.70;99.90;;;;;;4899203;29;20477;-74
2023/03/23 09:22:15;;;;;;;2.50;1.60;;;15.70;99.90;;;;;;4900171;29;20214;-75
2023/03/23 09:24:40;;;;;;;1.53;1.43;;;15.80;99.90;;;;;;4899449;29;20187;-75
2023/03/23 09:27:06;;;;;;;3.23;1.33;;;15.80;99.90;;;;;;4898417;29;20842;-74
2023/03/23 09:29:32;;;;;;;1.93;1.17;;;15.90;99.90;;;;;;4898760;29;20226;-73
2023/03/23 09:31:57;;;;;;;1.47;1.37;;;15.90;99.90;;;;;;4899090;29;20684;-74
2023/03/23 09:34:23;;;;;;;2.00;1.60;;;15.90;99.90;;;;;;4898863;29;20186;-74
2023/03/23 09:36:49;;;;;;;1.87;1.67;;;16.00;99.90;;;;;;4899023;29;20310;-75
2023/03/23 09:39:16;;;;;;;1.97;1.50;;;16.00;99.90;;;;;;4899389;29;20191;-74
2023/03/23 09:42:00;;;;;;;3.80;1.30;;;16.00;99.90;;;;;;4898476;29;20211;-74
2023/03/23 09:44:46;;;;;;;1.50;1.30;;;16.10;99.90;;;;;;4898722;29;20944;-74
2023/03/23 09:47:21;;;;;;;2.60;1.53;;;16.30;99.90;;;;;;4898918;29;20449;-74
2023/03/23 09:50:15;;;;;;;2.63;1.80;;;16.30;99.90;;;;;;4898818;29;20850;-74
2023/03/23 09:53:14;;;;;;;1.87;1.73;;;16.20;99.90;;;;;;4898445;29;20458;-74
2023/03/23 09:55:40;;;;;;;1.53;1.43;;;16.20;99.90;;;;;;4897821;29;20958;-74
2023/03/23 09:58:30;;;;;;;1.97;1.77;;;16.30;99.90;;;;;;4897386;29;20435;-74
2023/03/23 10:01:12;;;;;;;1.53;1.43;;;16.40;99.90;;;;;;4898551;29;20549;-74
2023/03/23 10:03:41;;;;;;;2.63;1.60;;;16.30;99.90;;;;;;4898544;29;20486;-74
2023/03/23 10:06:12;;;;;;;2.17;1.27;;;16.40;99.90;;;;;;4898667;29;20879;-74
2023/03/23 10:08:51;;;;;;;1.73;1.63;;;16.40;99.90;;;;;;4898509;29;20886;-74
2023/03/23 10:11:44;;;;;;;2.10;1.57;;;16.40;99.90;;;;;;4898280;29;20462;-74
2023/03/23 10:14:26;;;;;;;2.17;1.77;;;16.50;99.90;;;;;;4892433;29;20439;-74
2023/03/23 10:17:19;;;;;;;1.60;1.27;;;16.80;99.90;;;;;;4898241;29;20513;-74
2023/03/23 10:20:15;;;;;;;2.87;1.20;;;16.90;99.90;;;;;;4898044;29;20458;-74
2023/03/23 10:22:50;;;;;;;2.20;1.23;;;17.10;99.90;;;;;;4898284;29;20457;-74
2023/03/23 10:25:21;;;;;;;1.27;1.17;;;17.20;99.90;;;;;;4898353;29;20442;-75
2023/03/23 10:28:10;;;;;;;1.47;1.30;;;17.20;99.90;;;;;;4898028;29;20443;-74
2023/03/23 10:30:46;;;;;;;3.03;1.47;;;17.10;99.90;;;;;;4897967;29;20443;-74
2023/03/23 10:33:25;;;;;;;3.73;1.70;;;17.10;99.90;;;;;;4897972;29;20495;-74
2023/03/23 10:36:00;;;;;;;2.00;1.67;;;17.20;99.90;;;;;;4898054;29;20499;-75
2023/03/23 10:38:39;;;;;;;2.30;1.40;;;17.10;99.90;;;;;;4898169;29;20781;-74
2023/03/23 10:41:17;;;;;;;2.37;1.40;;;17.10;99.90;;;;;;4891323;29;20529;-75
2023/03/23 10:43:44;;;;;;;1.47;1.17;;;17.20;99.90;;;;;;4897696;29;20987;-74
2023/03/23 10:46:46;;;;;;;1.57;1.47;;;17.00;99.90;;;;;;4897748;29;20442;-75
2023/03/23 10:49:18;;;;;;;1.57;1.47;;;16.90;99.90;;;;;;4892124;29;20466;-74
2023/03/23 10:52:03;;;;;;;2.23;1.90;;;16.70;99.90;;;;;;4897705;29;20497;-75
2023/03/23 10:54:37;;;;;;;1.13;1.03;;;16.60;99.90;;;;;;4897603;29;20455;-75
2023/03/23 10:57:14;;;;;;;2.00;1.80;;;16.60;99.90;;;;;;4897759;29;21003;-75
2023/03/23 10:59:41;;;;;;;1.40;1.30;;;16.70;99.90;;;;;;4897686;29;20446;-75
2023/03/23 11:02:16;;;;;;;1.87;1.50;;;16.90;99.90;;;;;;4897199;29;20455;-75
2023/03/23 11:05:03;;;;;;;2.17;1.97;;;17.30;99.90;;;;;;4897234;29;20493;-74
2023/03/23 11:07:32;;;;;;;2.93;1.47;;;17.30;99.90;;;;;;4897313;29;20868;-74
2023/03/23 11:10:08;;;;;;;1.17;1.07;;;17.30;99.90;;;;;;4890250;29;20430;-75
2023/03/23 11:12:34;;;;;;;1.87;1.40;;;17.30;99.90;;;;;;4897119;29;20450;-74
2023/03/23 11:15:45;;;;;;;1.43;1.27;;;17.30;99.90;;;;;;4897288;29;20939;-75
2023/03/23 11:18:45;;;;;;;2.00;1.40;;;17.20;99.90;;;;;;4895158;29;20218;-75
2023/03/23 11:21:13;;;;;;;1.63;1.40;;;17.10;99.90;;;;;;4891403;29;20469;-75
2023/03/23 11:23:42;;;;;;;1.83;1.50;;;17.10;99.90;;;;;;4896522;29;20446;-75
2023/03/23 11:26:28;;;;;;;1.40;1.30;;;17.10;99.90;;;;;;4897175;29;20435;-75
2023/03/23 11:28:59;;;;;;;2.40;1.83;;;17.10;99.90;;;;;;4896950;29;20435;-75
2023/03/23 11:31:32;;;;;;;1.20;1.10;;;17.10;99.90;;;;;;4896694;29;20487;-75
2023/03/23 11:34:02;;;;;;;4.40;1.80;;;17.10;99.90;;;;;;4889264;29;20439;-75
2023/03/23 11:36:34;;;;;;;1.33;1.23;;;17.10;99.90;;;;;;4896754;29;20498;-75
2023/03/23 11:39:03;;;;;;;1.50;1.40;;;17.30;99.90;;;;;;4897007;29;20435;-75
2023/03/23 11:41:35;;;;;;;1.27;1.13;;;17.30;99.90;;;;;;4896706;29;20463;-76
2023/03/23 11:44:09;;;;;;;1.73;1.00;;;17.50;99.90;;;;;;4896739;29;20435;-75
2023/03/23 11:46:53;;;;;;;1.70;1.60;;;17.70;99.90;;;;;;4895222;29;20458;-75
2023/03/23 11:49:28;;;;;;;7.60;1.57;;;17.90;99.90;;;;;;4896993;29;20992;-74
2023/03/23 11:52:01;;;;;;;3.40;1.93;;;18.00;99.90;;;;;;4896445;29;20458;-75
2023/03/23 11:54:34;;;;;;;3.00;1.60;;;17.90;99.90;;;;;;4896265;29;20457;-75
2023/03/23 11:56:59;;;;;;;1.83;1.30;;;17.90;99.90;;;;;;4889794;29;20482;-76
2023/03/23 11:59:35;;;;;;;1.80;1.70;;;17.80;99.90;;;;;;4896385;29;20529;-75
2023/03/23 12:02:20;;;;;;;3.83;1.50;;;17.70;99.90;;;;;;4889380;29;20214;-76
2023/03/23 12:05:35;;;;;;;1.83;1.73;;;17.80;99.90;;;;;;4896491;29;20775;-75
2023/03/23 12:08:14;;;;;;;2.43;1.20;;;17.90;99.90;;;;;;4881574;29;20442;-75
2023/03/23 12:10:55;;;;;;;1.40;1.30;;;17.90;99.90;;;;;;4895866;29;20472;-76
2023/03/23 12:13:36;;;;;;;2.30;1.67;;;17.90;99.90;;;;;;4896066;29;20527;-76
2023/03/23 12:16:17;;;;;;;1.20;1.10;;;17.70;99.90;;;;;;4888058;29;20474;-75
2023/03/23 12:19:00;;;;;;;3.60;1.83;;;17.60;99.90;;;;;;4896287;29;20920;-74
2023/03/23 12:21:38;;;;;;;2.60;1.60;;;17.80;99.90;;;;;;4896170;29;20977;-75
2023/03/23 12:24:19;;;;;;;4.77;1.27;;;17.70;99.90;;;;;;4889438;29;20430;-74
2023/03/23 12:26:56;;;;;;;1.77;1.67;;;17.90;99.90;;;;;;4893559;29;20443;-73
2023/03/23 12:29:42;;;;;;;1.67;1.40;;;18.00;99.90;;;;;;4895888;29;20450;-73
2023/03/23 12:32:28;;;;;;;1.57;1.47;;;18.10;99.90;;;;;;4895793;29;20474;-73
2023/03/23 12:35:24;;;;;;;1.40;1.30;;;18.10;99.90;;;;;;4895591;29;20857;-74
2023/03/23 12:37:56;;;;;;;1.43;1.00;;;18.20;99.90;;;;;;4896976;29;20829;-74
2023/03/23 12:40:48;;;;;;;2.30;2.10;;;18.30;99.90;;;;;;4895549;29;20451;-73
2023/03/23 12:43:33;;;;;;;5.90;1.70;;;18.30;99.90;;;;;;4890238;29;20435;-73
2023/03/23 12:46:04;;;;;;;1.73;1.17;;;18.30;99.90;;;;;;4888213;29;21266;-74
2023/03/23 12:48:35;;;;;;;1.53;1.30;;;18.50;99.90;;;;;;4896612;29;20431;-74
2023/03/23 12:51:03;;;;;;;1.30;1.20;;;18.60;99.90;;;;;;4895802;29;20453;-73
2023/03/23 12:53:36;;;;;;;2.27;1.40;;;18.80;99.90;;;;;;4894258;29;20482;-74
2023/03/23 12:56:20;;;;;;;2.00;1.30;;;18.80;99.90;;;;;;4888702;29;20470;-74
2023/03/23 12:58:56;;;;;;;1.53;1.20;;;18.80;99.90;;;;;;4895862;29;20454;-73
2023/03/23 13:01:34;;;;;;;4.13;1.40;;;18.70;99.90;;;;;;4894781;29;20866;-74
2023/03/23 13:04:16;;;;;;;2.33;2.13;;;18.50;99.90;;;;;;4889052;29;20439;-73
2023/03/23 13:06:44;;;;;;;2.20;2.00;;;18.40;99.90;;;;;;4895618;29;20806;-74
2023/03/23 13:09:23;;;;;;;1.67;1.33;;;18.30;99.90;;;;;;4895870;29;20431;-75
2023/03/23 13:11:51;;;;;;;2.30;1.50;;;18.40;99.90;;;;;;4895683;29;20455;-73
2023/03/23 13:14:16;;;;;;;2.70;1.50;;;18.30;99.90;;;;;;4895651;29;20430;-74
2023/03/23 13:16:52;;;;;;;2.23;1.43;;;18.50;99.90;;;;;;4895668;29;20482;-75
2023/03/23 13:19:34;;;;;;;1.93;1.40;;;18.50;99.90;;;;;;4895855;29;20222;-74
2023/03/23 13:22:13;;;;;;;2.00;1.80;;;18.40;99.90;;;;;;4895634;29;20537;-74
2023/03/23 13:24:45;;;;;;;3.00;1.57;;;18.30;99.90;;;;;;4894863;29;20911;-73
2023/03/23 13:27:13;;;;;;;1.53;1.43;;;18.40;99.90;;;;;;4895556;29;20501;-74
2023/03/23 13:29:45;;;;;;;4.87;1.70;;;18.40;99.90;;;;;;4893924;29;20439;-76
2023/03/23 13:32:16;;;;;;;3.37;1.67;;;18.40;99.90;;;;;;4895155;29;20466;-72
2023/03/23 13:34:42;;;;;;;1.73;1.43;;;18.50;99.90;;;;;;4894865;29;20431;-73
2023/03/23 13:37:24;;;;;;;1.60;1.50;;;18.60;99.90;;;;;;4893842;29;20482;-73
2023/03/23 13:39:56;;;;;;;1.87;1.77;;;18.50;99.90;;;;;;4894183;29;20916;-73
2023/03/23 13:42:26;;;;;;;1.97;1.87;;;18.60;99.90;;;;;;4897058;29;20449;-74
2023/03/23 13:44:52;;;;;;;1.80;1.70;;;18.60;99.90;;;;;;4898433;29;20993;-73
2023/03/23 13:47:23;;;;;;;1.57;1.47;;;18.70;99.90;;;;;;4898400;29;20427;-72
2023/03/23 13:49:57;;;;;;;1.50;1.30;;;18.70;99.90;;;;;;4898236;29;20197;-74
2023/03/23 13:52:26;;;;;;;1.80;1.70;;;18.80;99.90;;;;;;4898585;29;20453;-73
2023/03/23 13:55:08;;;;;;;1.30;1.20;;;18.70;99.90;;;;;;4898184;29;20443;-73
2023/03/23 13:57:48;;;;;;;3.07;1.70;;;18.40;99.90;;;;;;4897970;29;20484;-73
2023/03/23 14:00:34;;;;;;;2.17;1.40;;;18.40;99.90;;;;;;4898616;29;20431;-73
2023/03/23 14:03:13;;;;;;;5.40;2.10;;;18.30;99.90;;;;;;4898327;29;20510;-74
2023/03/23 14:05:58;;;;;;;1.47;1.40;;;18.30;99.90;;;;;;4897815;29;20427;-74
2023/03/23 14:08:30;;;;;;;2.50;1.40;;;18.20;99.90;;;;;;4898148;29;20427;-74
2023/03/23 14:11:14;;;;;;;3.83;1.30;;;18.20;99.90;;;;;;4898088;29;20443;-74
2023/03/23 14:14:03;;;;;;;2.63;1.33;;;18.20;99.90;;;;;;4896468;29;20883;-73
2023/03/23 14:16:39;;;;;;;1.67;1.23;;;18.30;99.90;;;;;;4897650;29;20485;-74
2023/03/23 14:19:20;;;;;;;1.57;1.47;;;18.30;99.90;;;;;;4891579;29;20423;-74
2023/03/23 14:21:55;;;;;;;3.00;1.30;;;18.40;99.90;;;;;;4897665;29;20439;-73
2023/03/23 14:24:23;;;;;;;1.43;1.33;;;18.40;99.90;;;;;;4897961;29;20427;-73
2023/03/23 14:26:52;;;;;;;2.20;1.87;;;18.40;99.90;;;;;;4898025;29;20443;-74
2023/03/23 14:29:18;;;;;;;3.90;1.80;;;18.40;99.90;;;;;;4896969;29;20427;-74
2023/03/23 14:31:45;;;;;;;2.83;1.60;;;18.50;99.90;;;;;;4897599;29;20533;-73
2023/03/23 14:34:15;;;;;;;2.37;1.50;;;18.50;99.90;;;;;;4897889;29;20441;-73
2023/03/23 14:36:41;;;;;;;1.83;1.33;;;18.60;99.90;;;;;;4897708;29;20477;-73
2023/03/23 14:39:26;;;;;;;3.33;1.70;;;18.60;99.90;;;;;;4898120;29;20439;-72